sensor_id;sensor_type;location;lat;lon;timestamp;P1;durP1;ratioP1;P2;durP2;ratioP2
19883;SDS011;10104;50.732;10.174;2023-06-10T00:01:52;8.40;;;6.90;;
19883;SDS011;10104;50.732;10.174;2023-06-10T00:04:16;7.70;;;6.90;;
19883;SDS011;10104;50.732;10.174;2023-06-10T00:06:39;7.13;;;6.43;;
19883;SDS011;10104;50.732;10.174;2023-06-10T00:09:01;7.53;;;6.70;;
19883;SDS011;10104;50.732;10.174;2023-06-10T00:11:25;7.83;;;7.13;;
19883;SDS011;10104;50.732;10.174;2023-06-10T00:13:47;7.60;;;6.47;;
19883;SDS011;10104;50.732;10.174;2023-06-10T00:16:09;8.63;;;6.60;;
19883;SDS011;10104;50.732;10.174;2023-06-10T00:18:31;8.80;;;6.37;;
19883;SDS011;10104;50.732;10.174;2023-06-10T00:20:52;7.17;;;6.43;;
19883;SDS011;10104;50.732;10.174;2023-06-10T00:23:16;7.77;;;6.10;;
19883;SDS011;10104;50.732;10.174;2023-06-10T00:25:37;8.47;;;6.70;;
19883;SDS011;10104;50.732;10.174;2023-06-10T00:27:59;8.57;;;6.93;;
19883;SDS011;10104;50.732;10.174;2023-06-10T00:30:21;10.20;;;7.03;;
19883;SDS011;10104;50.732;10.174;2023-06-10T00:32:43;9.03;;;7.10;;
19883;SDS011;10104;50.732;10.174;2023-06-10T00:35:05;7.20;;;6.47;;
19883;SDS011;10104;50.732;10.174;2023-06-10T00:37:28;7.77;;;5.87;;
19883;SDS011;10104;50.732;10.174;2023-06-10T00:39:50;7.03;;;6.20;;
19883;SDS011;10104;50.732;10.174;2023-06-10T00:42:12;14.47;;;6.50;;
19883;SDS011;10104;50.732;10.174;2023-06-10T00:44:33;7.13;;;6.43;;
19883;SDS011;10104;50.732;10.174;2023-06-10T00:46:55;10.47;;;7.20;;
19883;SDS011;10104;50.732;10.174;2023-06-10T00:49:17;8.47;;;6.30;;
19883;SDS011;10104;50.732;10.174;2023-06-10T00:51:39;8.10;;;6.83;;
19883;SDS011;10104;50.732;10.174;2023-06-10T00:54:01;6.67;;;6.07;;
19883;SDS011;10104;50.732;10.174;2023-06-10T00:56:23;9.33;;;7.00;;
19883;SDS011;10104;50.732;10.174;2023-06-10T00:58:44;8.30;;;6.90;;
19883;SDS011;10104;50.732;10.174;2023-06-10T01:01:06;7.07;;;6.37;;
19883;SDS011;10104;50.732;10.174;2023-06-10T01:03:28;6.87;;;6.17;;
19883;SDS011;10104;50.732;10.174;2023-06-10T01:08:56;9.10;;;6.57;;
19883;SDS011;10104;50.732;10.174;2023-06-10T01:11:24;7.27;;;6.57;;
19883;SDS011;10104;50.732;10.174;2023-06-10T01:13:50;8.23;;;6.87;;
19883;SDS011;10104;50.732;10.174;2023-06-10T01:16:13;9.67;;;6.70;;
19883;SDS011;10104;50.732;10.174;2023-06-10T01:18:34;11.93;;;6.83;;
19883;SDS011;10104;50.732;10.174;2023-06-10T01:20:56;8.07;;;6.70;;
19883;SDS011;10104;50.732;10.174;2023-06-10T01:23:18;7.13;;;6.43;;
19883;SDS011;10104;50.732;10.174;2023-06-10T01:25:40;7.40;;;6.10;;
19883;SDS011;10104;50.732;10.174;2023-06-10T01:30:29;7.57;;;6.50;;
19883;SDS011;10104;50.732;10.174;2023-06-10T01:32:54;8.23;;;6.20;;
19883;SDS011;10104;50.732;10.174;2023-06-10T01:35:17;7.13;;;6.30;;
19883;SDS011;10104;50.732;10.174;2023-06-10T01:37:43;9.10;;;6.40;;
19883;SDS011;10104;50.732;10.174;2023-06-10T01:40:07;7.97;;;6.50;;
19883;SDS011;10104;50.732;10.174;2023-06-10T01:42:29;7.63;;;6.00;;
19883;SDS011;10104;50.732;10.174;2023-06-10T01:44:51;7.43;;;6.50;;
19883;SDS011;10104;50.732;10.174;2023-06-10T01:47:13;10.10;;;5.87;;
19883;SDS011;10104;50.732;10.174;2023-06-10T01:49:35;6.77;;;6.07;;
19883;SDS011;10104;50.732;10.174;2023-06-10T01:51:57;8.80;;;6.20;;
19883;SDS011;10104;50.732;10.174;2023-06-10T01:54:18;8.30;;;6.47;;
19883;SDS011;10104;50.732;10.174;2023-06-10T01:56:39;6.63;;;6.00;;
19883;SDS011;10104;50.732;10.174;2023-06-10T01:59:01;6.60;;;5.53;;
19883;SDS011;10104;50.732;10.174;2023-06-10T02:01:22;7.97;;;6.60;;
19883;SDS011;10104;50.732;10.174;2023-06-10T02:03:44;7.53;;;6.10;;
19883;SDS011;10104;50.732;10.174;2023-06-10T02:06:06;7.70;;;6.33;;
19883;SDS011;10104;50.732;10.174;2023-06-10T02:08:27;8.87;;;5.80;;
19883;SDS011;10104;50.732;10.174;2023-06-10T02:10:49;6.50;;;5.80;;
19883;SDS011;10104;50.732;10.174;2023-06-10T02:13:10;8.57;;;6.23;;
19883;SDS011;10104;50.732;10.174;2023-06-10T02:15:32;6.80;;;5.93;;
19883;SDS011;10104;50.732;10.174;2023-06-10T02:17:53;7.13;;;6.00;;
19883;SDS011;10104;50.732;10.174;2023-06-10T02:20:15;6.27;;;5.67;;
19883;SDS011;10104;50.732;10.174;2023-06-10T02:22:37;9.33;;;6.23;;
19883;SDS011;10104;50.732;10.174;2023-06-10T02:24:59;7.87;;;6.23;;
19883;SDS011;10104;50.732;10.174;2023-06-10T02:27:20;8.47;;;6.10;;
19883;SDS011;10104;50.732;10.174;2023-06-10T02:29:42;8.90;;;5.80;;
19883;SDS011;10104;50.732;10.174;2023-06-10T02:32:04;6.20;;;5.60;;
19883;SDS011;10104;50.732;10.174;2023-06-10T02:34:30;7.90;;;6.07;;
19883;SDS011;10104;50.732;10.174;2023-06-10T02:36:52;8.17;;;6.27;;
19883;SDS011;10104;50.732;10.174;2023-06-10T02:39:13;6.90;;;5.90;;
19883;SDS011;10104;50.732;10.174;2023-06-10T02:41:35;6.63;;;5.80;;
19883;SDS011;10104;50.732;10.174;2023-06-10T02:43:56;7.53;;;6.33;;
19883;SDS011;10104;50.732;10.174;2023-06-10T02:46:18;12.50;;;6.23;;
19883;SDS011;10104;50.732;10.174;2023-06-10T02:48:43;7.70;;;5.90;;
19883;SDS011;10104;50.732;10.174;2023-06-10T02:51:07;9.67;;;6.23;;
19883;SDS011;10104;50.732;10.174;2023-06-10T02:53:29;6.87;;;6.13;;
19883;SDS011;10104;50.732;10.174;2023-06-10T02:55:50;7.70;;;6.03;;
19883;SDS011;10104;50.732;10.174;2023-06-10T02:58:12;9.53;;;5.67;;
19883;SDS011;10104;50.732;10.174;2023-06-10T03:00:33;6.90;;;5.40;;
19883;SDS011;10104;50.732;10.174;2023-06-10T03:02:55;9.93;;;5.63;;
19883;SDS011;10104;50.732;10.174;2023-06-10T03:05:18;6.70;;;6.00;;
19883;SDS011;10104;50.732;10.174;2023-06-10T03:07:40;7.23;;;5.93;;
19883;SDS011;10104;50.732;10.174;2023-06-10T03:10:02;6.13;;;5.47;;
19883;SDS011;10104;50.732;10.174;2023-06-10T03:12:24;7.13;;;6.43;;
19883;SDS011;10104;50.732;10.174;2023-06-10T03:14:45;8.17;;;5.90;;
19883;SDS011;10104;50.732;10.174;2023-06-10T03:17:07;6.40;;;5.80;;
19883;SDS011;10104;50.732;10.174;2023-06-10T03:19:29;6.53;;;5.83;;
19883;SDS011;10104;50.732;10.174;2023-06-10T03:21:57;8.47;;;5.90;;
19883;SDS011;10104;50.732;10.174;2023-06-10T03:24:29;6.33;;;5.70;;
19883;SDS011;10104;50.732;10.174;2023-06-10T03:26:51;8.37;;;5.60;;
19883;SDS011;10104;50.732;10.174;2023-06-10T03:29:12;6.67;;;5.60;;
19883;SDS011;10104;50.732;10.174;2023-06-10T03:31:34;6.23;;;5.63;;
19883;SDS011;10104;50.732;10.174;2023-06-10T03:33:58;8.10;;;6.10;;
19883;SDS011;10104;50.732;10.174;2023-06-10T03:36:20;10.87;;;6.37;;
19883;SDS011;10104;50.732;10.174;2023-06-10T03:38:41;8.30;;;5.70;;
19883;SDS011;10104;50.732;10.174;2023-06-10T03:41:03;6.13;;;5.30;;
19883;SDS011;10104;50.732;10.174;2023-06-10T03:43:24;8.37;;;5.70;;
19883;SDS011;10104;50.732;10.174;2023-06-10T03:45:46;7.03;;;6.03;;
19883;SDS011;10104;50.732;10.174;2023-06-10T03:48:10;6.70;;;6.10;;
19883;SDS011;10104;50.732;10.174;2023-06-10T03:50:32;7.97;;;6.33;;
19883;SDS011;10104;50.732;10.174;2023-06-10T03:52:54;8.13;;;6.27;;
19883;SDS011;10104;50.732;10.174;2023-06-10T03:55:15;8.67;;;6.37;;
19883;SDS011;10104;50.732;10.174;2023-06-10T03:57:38;9.00;;;6.50;;
19883;SDS011;10104;50.732;10.174;2023-06-10T03:59:59;7.83;;;6.20;;
19883;SDS011;10104;50.732;10.174;2023-06-10T04:02:21;7.33;;;5.80;;
19883;SDS011;10104;50.732;10.174;2023-06-10T04:04:43;7.00;;;6.30;;
19883;SDS011;10104;50.732;10.174;2023-06-10T04:07:04;6.97;;;6.13;;
19883;SDS011;10104;50.732;10.174;2023-06-10T04:09:26;6.70;;;5.93;;
19883;SDS011;10104;50.732;10.174;2023-06-10T04:11:48;6.33;;;5.73;;
19883;SDS011;10104;50.732;10.174;2023-06-10T04:14:09;6.03;;;5.43;;
19883;SDS011;10104;50.732;10.174;2023-06-10T04:16:30;7.53;;;5.20;;
19883;SDS011;10104;50.732;10.174;2023-06-10T04:18:52;6.20;;;5.27;;
19883;SDS011;10104;50.732;10.174;2023-06-10T04:21:14;7.53;;;5.60;;
19883;SDS011;10104;50.732;10.174;2023-06-10T04:23:35;8.13;;;6.07;;
19883;SDS011;10104;50.732;10.174;2023-06-10T04:25:58;6.97;;;5.70;;
19883;SDS011;10104;50.732;10.174;2023-06-10T04:28:20;7.03;;;6.40;;
19883;SDS011;10104;50.732;10.174;2023-06-10T04:30:42;7.73;;;5.87;;
19883;SDS011;10104;50.732;10.174;2023-06-10T04:33:03;6.60;;;5.67;;
19883;SDS011;10104;50.732;10.174;2023-06-10T04:35:25;7.77;;;6.63;;
19883;SDS011;10104;50.732;10.174;2023-06-10T04:37:48;8.20;;;5.60;;
19883;SDS011;10104;50.732;10.174;2023-06-10T04:40:10;9.40;;;5.97;;
19883;SDS011;10104;50.732;10.174;2023-06-10T04:42:32;7.13;;;6.40;;
19883;SDS011;10104;50.732;10.174;2023-06-10T04:44:53;8.90;;;6.30;;
19883;SDS011;10104;50.732;10.174;2023-06-10T04:47:15;9.00;;;6.67;;
19883;SDS011;10104;50.732;10.174;2023-06-10T04:49:38;8.20;;;6.23;;
19883;SDS011;10104;50.732;10.174;2023-06-10T04:51:59;10.53;;;7.00;;
19883;SDS011;10104;50.732;10.174;2023-06-10T04:54:21;8.40;;;6.83;;
19883;SDS011;10104;50.732;10.174;2023-06-10T04:56:42;7.43;;;6.63;;
19883;SDS011;10104;50.732;10.174;2023-06-10T04:59:04;7.63;;;6.73;;
19883;SDS011;10104;50.732;10.174;2023-06-10T05:01:25;7.50;;;6.70;;
19883;SDS011;10104;50.732;10.174;2023-06-10T05:03:47;8.30;;;7.00;;
19883;SDS011;10104;50.732;10.174;2023-06-10T05:06:08;9.13;;;6.63;;
19883;SDS011;10104;50.732;10.174;2023-06-10T05:08:31;8.27;;;6.90;;
19883;SDS011;10104;50.732;10.174;2023-06-10T05:10:52;9.93;;;6.63;;
19883;SDS011;10104;50.732;10.174;2023-06-10T05:13:14;10.27;;;7.40;;
19883;SDS011;10104;50.732;10.174;2023-06-10T05:15:37;8.47;;;6.97;;
19883;SDS011;10104;50.732;10.174;2023-06-10T05:17:59;7.73;;;6.50;;
19883;SDS011;10104;50.732;10.174;2023-06-10T05:20:21;8.03;;;6.80;;
19883;SDS011;10104;50.732;10.174;2023-06-10T05:22:42;8.30;;;6.87;;
19883;SDS011;10104;50.732;10.174;2023-06-10T05:25:04;11.00;;;7.40;;
19883;SDS011;10104;50.732;10.174;2023-06-10T05:27:26;9.80;;;6.57;;
19883;SDS011;10104;50.732;10.174;2023-06-10T05:29:47;9.20;;;6.70;;
19883;SDS011;10104;50.732;10.174;2023-06-10T05:32:09;9.83;;;7.10;;
19883;SDS011;10104;50.732;10.174;2023-06-10T05:34:30;8.50;;;7.30;;
19883;SDS011;10104;50.732;10.174;2023-06-10T05:36:52;7.73;;;6.97;;
19883;SDS011;10104;50.732;10.174;2023-06-10T05:39:13;6.93;;;6.22;;
19883;SDS011;10104;50.732;10.174;2023-06-10T05:41:35;10.03;;;6.90;;
19883;SDS011;10104;50.732;10.174;2023-06-10T05:43:56;9.30;;;7.03;;
19883;SDS011;10104;50.732;10.174;2023-06-10T05:46:18;9.45;;;7.13;;
19883;SDS011;10104;50.732;10.174;2023-06-10T05:48:40;7.00;;;6.30;;
19883;SDS011;10104;50.732;10.174;2023-06-10T05:51:02;10.18;;;6.65;;
19883;SDS011;10104;50.732;10.174;2023-06-10T05:53:23;10.05;;;7.28;;
19883;SDS011;10104;50.732;10.174;2023-06-10T05:55:45;7.57;;;6.85;;
19883;SDS011;10104;50.732;10.174;2023-06-10T05:58:07;7.78;;;6.85;;
19883;SDS011;10104;50.732;10.174;2023-06-10T06:00:28;12.93;;;7.07;;
19883;SDS011;10104;50.732;10.174;2023-06-10T06:02:50;8.50;;;7.40;;
19883;SDS011;10104;50.732;10.174;2023-06-10T06:05:12;7.93;;;6.68;;
19883;SDS011;10104;50.732;10.174;2023-06-10T06:07:35;12.80;;;7.45;;
19883;SDS011;10104;50.732;10.174;2023-06-10T06:09:56;7.90;;;7.10;;
19883;SDS011;10104;50.732;10.174;2023-06-10T06:12:18;9.55;;;6.80;;
19883;SDS011;10104;50.732;10.174;2023-06-10T06:14:39;9.70;;;6.40;;
19883;SDS011;10104;50.732;10.174;2023-06-10T06:17:01;8.95;;;6.60;;
19883;SDS011;10104;50.732;10.174;2023-06-10T06:19:22;8.70;;;6.95;;
19883;SDS011;10104;50.732;10.174;2023-06-10T06:21:44;8.63;;;6.50;;
19883;SDS011;10104;50.732;10.174;2023-06-10T06:24:06;9.35;;;6.80;;
19883;SDS011;10104;50.732;10.174;2023-06-10T06:26:28;11.45;;;7.07;;
19883;SDS011;10104;50.732;10.174;2023-06-10T06:28:49;7.80;;;6.22;;
19883;SDS011;10104;50.732;10.174;2023-06-10T06:31:11;10.18;;;6.25;;
19883;SDS011;10104;50.732;10.174;2023-06-10T06:33:32;9.65;;;6.35;;
19883;SDS011;10104;50.732;10.174;2023-06-10T06:35:54;9.93;;;6.32;;
19883;SDS011;10104;50.732;10.174;2023-06-10T06:38:15;7.80;;;6.05;;
19883;SDS011;10104;50.732;10.174;2023-06-10T06:40:37;7.72;;;5.68;;
19883;SDS011;10104;50.732;10.174;2023-06-10T06:42:58;8.88;;;5.90;;
19883;SDS011;10104;50.732;10.174;2023-06-10T06:45:20;11.52;;;6.60;;
19883;SDS011;10104;50.732;10.174;2023-06-10T06:47:41;7.95;;;5.93;;
19883;SDS011;10104;50.732;10.174;2023-06-10T06:50:04;8.48;;;5.55;;
19883;SDS011;10104;50.732;10.174;2023-06-10T06:52:26;10.02;;;5.60;;
19883;SDS011;10104;50.732;10.174;2023-06-10T06:54:47;7.25;;;5.50;;
19883;SDS011;10104;50.732;10.174;2023-06-10T06:57:09;8.88;;;4.97;;
19883;SDS011;10104;50.732;10.174;2023-06-10T06:59:30;11.40;;;5.85;;
19883;SDS011;10104;50.732;10.174;2023-06-10T07:01:52;11.27;;;5.57;;
19883;SDS011;10104;50.732;10.174;2023-06-10T07:04:15;6.65;;;5.20;;
19883;SDS011;10104;50.732;10.174;2023-06-10T07:06:37;12.18;;;5.90;;
19883;SDS011;10104;50.732;10.174;2023-06-10T07:08:59;8.82;;;5.50;;
19883;SDS011;10104;50.732;10.174;2023-06-10T07:11:20;7.68;;;5.53;;
19883;SDS011;10104;50.732;10.174;2023-06-10T07:13:43;11.63;;;5.40;;
19883;SDS011;10104;50.732;10.174;2023-06-10T07:16:04;8.07;;;5.80;;
19883;SDS011;10104;50.732;10.174;2023-06-10T07:18:26;14.55;;;5.78;;
19883;SDS011;10104;50.732;10.174;2023-06-10T07:20:47;7.60;;;5.13;;
19883;SDS011;10104;50.732;10.174;2023-06-10T07:23:09;6.80;;;4.95;;
19883;SDS011;10104;50.732;10.174;2023-06-10T07:25:30;10.05;;;5.60;;
19883;SDS011;10104;50.732;10.174;2023-06-10T07:27:52;8.75;;;5.45;;
19883;SDS011;10104;50.732;10.174;2023-06-10T07:30:13;8.38;;;5.28;;
19883;SDS011;10104;50.732;10.174;2023-06-10T07:32:35;9.23;;;6.35;;
19883;SDS011;10104;50.732;10.174;2023-06-10T07:34:56;7.18;;;5.00;;
19883;SDS011;10104;50.732;10.174;2023-06-10T07:37:18;8.60;;;5.53;;
19883;SDS011;10104;50.732;10.174;2023-06-10T07:39:41;9.63;;;5.22;;
19883;SDS011;10104;50.732;10.174;2023-06-10T07:42:03;10.38;;;5.32;;
19883;SDS011;10104;50.732;10.174;2023-06-10T07:44:25;10.13;;;5.63;;
19883;SDS011;10104;50.732;10.174;2023-06-10T07:46:47;7.40;;;5.50;;
19883;SDS011;10104;50.732;10.174;2023-06-10T07:49:08;9.88;;;5.15;;
19883;SDS011;10104;50.732;10.174;2023-06-10T07:51:30;8.50;;;5.63;;
19883;SDS011;10104;50.732;10.174;2023-06-10T07:53:51;11.38;;;5.45;;
19883;SDS011;10104;50.732;10.174;2023-06-10T07:56:13;6.18;;;5.32;;
19883;SDS011;10104;50.732;10.174;2023-06-10T07:58:35;10.13;;;6.10;;
19883;SDS011;10104;50.732;10.174;2023-06-10T08:00:56;7.93;;;5.22;;
19883;SDS011;10104;50.732;10.174;2023-06-10T08:03:18;8.25;;;6.03;;
19883;SDS011;10104;50.732;10.174;2023-06-10T08:05:39;8.50;;;5.55;;
19883;SDS011;10104;50.732;10.174;2023-06-10T08:08:01;7.63;;;5.75;;
19883;SDS011;10104;50.732;10.174;2023-06-10T08:10:24;8.02;;;5.65;;
19883;SDS011;10104;50.732;10.174;2023-06-10T08:12:46;11.80;;;5.35;;
19883;SDS011;10104;50.732;10.174;2023-06-10T08:15:07;9.10;;;5.90;;
19883;SDS011;10104;50.732;10.174;2023-06-10T08:17:30;9.95;;;6.07;;
19883;SDS011;10104;50.732;10.174;2023-06-10T08:19:51;7.70;;;5.93;;
19883;SDS011;10104;50.732;10.174;2023-06-10T08:22:13;9.50;;;5.68;;
19883;SDS011;10104;50.732;10.174;2023-06-10T08:24:35;7.82;;;5.35;;
19883;SDS011;10104;50.732;10.174;2023-06-10T08:26:57;8.30;;;5.30;;
19883;SDS011;10104;50.732;10.174;2023-06-10T08:29:19;7.82;;;5.57;;
19883;SDS011;10104;50.732;10.174;2023-06-10T08:31:43;9.70;;;5.72;;
19883;SDS011;10104;50.732;10.174;2023-06-10T08:34:05;8.05;;;5.57;;
19883;SDS011;10104;50.732;10.174;2023-06-10T08:36:26;11.57;;;5.35;;
19883;SDS011;10104;50.732;10.174;2023-06-10T08:38:48;8.57;;;5.68;;
19883;SDS011;10104;50.732;10.174;2023-06-10T08:41:10;9.63;;;5.63;;
19883;SDS011;10104;50.732;10.174;2023-06-10T08:43:45;6.78;;;5.40;;
19883;SDS011;10104;50.732;10.174;2023-06-10T08:46:14;10.25;;;6.05;;
19883;SDS011;10104;50.732;10.174;2023-06-10T08:48:38;8.40;;;5.82;;
19883;SDS011;10104;50.732;10.174;2023-06-10T08:51:03;7.40;;;5.60;;
19883;SDS011;10104;50.732;10.174;2023-06-10T08:53:26;9.13;;;5.93;;
19883;SDS011;10104;50.732;10.174;2023-06-10T08:55:51;10.98;;;6.00;;
19883;SDS011;10104;50.732;10.174;2023-06-10T08:58:13;10.32;;;6.40;;
19883;SDS011;10104;50.732;10.174;2023-06-10T09:00:34;9.30;;;5.95;;
19883;SDS011;10104;50.732;10.174;2023-06-10T09:02:59;9.85;;;5.90;;
19883;SDS011;10104;50.732;10.174;2023-06-10T09:05:26;8.73;;;5.95;;
19883;SDS011;10104;50.732;10.174;2023-06-10T09:07:48;8.07;;;5.13;;
19883;SDS011;10104;50.732;10.174;2023-06-10T09:10:10;7.30;;;6.20;;
19883;SDS011;10104;50.732;10.174;2023-06-10T09:12:33;6.10;;;5.47;;
19883;SDS011;10104;50.732;10.174;2023-06-10T09:14:56;7.95;;;5.32;;
19883;SDS011;10104;50.732;10.174;2023-06-10T09:17:17;6.38;;;5.72;;
19883;SDS011;10104;50.732;10.174;2023-06-10T09:19:39;6.82;;;5.80;;
19883;SDS011;10104;50.732;10.174;2023-06-10T09:22:02;7.80;;;5.80;;
19883;SDS011;10104;50.732;10.174;2023-06-10T09:24:24;7.63;;;5.28;;
19883;SDS011;10104;50.732;10.174;2023-06-10T09:26:46;6.57;;;5.30;;
19883;SDS011;10104;50.732;10.174;2023-06-10T09:29:08;9.00;;;5.43;;
19883;SDS011;10104;50.732;10.174;2023-06-10T09:31:31;8.30;;;5.70;;
19883;SDS011;10104;50.732;10.174;2023-06-10T09:34:04;5.75;;;5.13;;
19883;SDS011;10104;50.732;10.174;2023-06-10T09:36:33;6.10;;;5.07;;
19883;SDS011;10104;50.732;10.174;2023-06-10T09:38:56;9.75;;;5.63;;
19883;SDS011;10104;50.732;10.174;2023-06-10T09:41:17;8.70;;;4.95;;
19883;SDS011;10104;50.732;10.174;2023-06-10T09:43:40;7.25;;;5.20;;
19883;SDS011;10104;50.732;10.174;2023-06-10T09:46:03;7.65;;;5.15;;
19883;SDS011;10104;50.732;10.174;2023-06-10T09:48:24;7.13;;;5.13;;
19883;SDS011;10104;50.732;10.174;2023-06-10T09:50:46;5.45;;;4.85;;
19883;SDS011;10104;50.732;10.174;2023-06-10T09:53:07;8.00;;;4.85;;
19883;SDS011;10104;50.732;10.174;2023-06-10T09:55:30;7.85;;;4.88;;
19883;SDS011;10104;50.732;10.174;2023-06-10T09:57:54;7.22;;;4.90;;
19883;SDS011;10104;50.732;10.174;2023-06-10T10:00:16;7.72;;;5.30;;
19883;SDS011;10104;50.732;10.174;2023-06-10T10:02:46;6.80;;;4.53;;
19883;SDS011;10104;50.732;10.174;2023-06-10T10:05:09;6.45;;;4.70;;
19883;SDS011;10104;50.732;10.174;2023-06-10T10:07:31;5.03;;;4.57;;
19883;SDS011;10104;50.732;10.174;2023-06-10T10:09:53;6.05;;;4.82;;
19883;SDS011;10104;50.732;10.174;2023-06-10T10:12:15;6.32;;;4.45;;
19883;SDS011;10104;50.732;10.174;2023-06-10T10:14:37;6.97;;;4.28;;
19883;SDS011;10104;50.732;10.174;2023-06-10T10:17:00;5.82;;;4.22;;
19883;SDS011;10104;50.732;10.174;2023-06-10T10:19:25;6.95;;;4.90;;
19883;SDS011;10104;50.732;10.174;2023-06-10T10:21:52;7.35;;;4.70;;
19883;SDS011;10104;50.732;10.174;2023-06-10T10:24:16;5.40;;;4.50;;
19883;SDS011;10104;50.732;10.174;2023-06-10T10:26:42;9.05;;;4.32;;
19883;SDS011;10104;50.732;10.174;2023-06-10T10:31:51;5.20;;;4.60;;
19883;SDS011;10104;50.732;10.174;2023-06-10T10:34:15;5.32;;;4.82;;
19883;SDS011;10104;50.732;10.174;2023-06-10T10:36:40;7.40;;;4.40;;
19883;SDS011;10104;50.732;10.174;2023-06-10T10:39:03;10.93;;;6.03;;
19883;SDS011;10104;50.732;10.174;2023-06-10T10:41:25;7.68;;;4.43;;
19883;SDS011;10104;50.732;10.174;2023-06-10T10:43:48;6.45;;;4.20;;
19883;SDS011;10104;50.732;10.174;2023-06-10T10:46:13;7.25;;;4.60;;
19883;SDS011;10104;50.732;10.174;2023-06-10T10:48:38;5.93;;;4.60;;
19883;SDS011;10104;50.732;10.174;2023-06-10T10:51:00;5.50;;;4.43;;
19883;SDS011;10104;50.732;10.174;2023-06-10T10:53:22;4.85;;;3.97;;
19883;SDS011;10104;50.732;10.174;2023-06-10T10:55:44;5.10;;;4.28;;
19883;SDS011;10104;50.732;10.174;2023-06-10T10:58:23;6.18;;;4.65;;
19883;SDS011;10104;50.732;10.174;2023-06-10T11:00:45;6.82;;;4.40;;
19883;SDS011;10104;50.732;10.174;2023-06-10T11:03:07;6.63;;;4.13;;
19883;SDS011;10104;50.732;10.174;2023-06-10T11:08:00;5.55;;;4.13;;
19883;SDS011;10104;50.732;10.174;2023-06-10T11:10:34;9.75;;;4.20;;
19883;SDS011;10104;50.732;10.174;2023-06-10T11:13:05;7.10;;;3.85;;
19883;SDS011;10104;50.732;10.174;2023-06-10T11:15:29;4.35;;;3.90;;
19883;SDS011;10104;50.732;10.174;2023-06-10T11:18:07;7.88;;;3.88;;
19883;SDS011;10104;50.732;10.174;2023-06-10T11:23:09;5.07;;;3.95;;
19883;SDS011;10104;50.732;10.174;2023-06-10T11:25:38;5.95;;;4.13;;
19883;SDS011;10104;50.732;10.174;2023-06-10T11:28:00;5.60;;;4.00;;
19883;SDS011;10104;50.732;10.174;2023-06-10T11:30:25;8.65;;;3.67;;
19883;SDS011;10104;50.732;10.174;2023-06-10T11:32:50;6.90;;;3.80;;
19883;SDS011;10104;50.732;10.174;2023-06-10T11:35:20;5.10;;;3.50;;
19883;SDS011;10104;50.732;10.174;2023-06-10T11:37:46;4.00;;;3.38;;
19883;SDS011;10104;50.732;10.174;2023-06-10T11:40:08;4.20;;;3.70;;
19883;SDS011;10104;50.732;10.174;2023-06-10T11:42:30;4.43;;;4.00;;
19883;SDS011;10104;50.732;10.174;2023-06-10T11:44:53;4.55;;;3.50;;
19883;SDS011;10104;50.732;10.174;2023-06-10T11:47:15;6.90;;;3.55;;
19883;SDS011;10104;50.732;10.174;2023-06-10T11:49:37;5.25;;;3.97;;
19883;SDS011;10104;50.732;10.174;2023-06-10T11:51:58;7.88;;;3.42;;
19883;SDS011;10104;50.732;10.174;2023-06-10T11:54:20;4.50;;;3.78;;
19883;SDS011;10104;50.732;10.174;2023-06-10T11:56:43;5.03;;;4.28;;
19883;SDS011;10104;50.732;10.174;2023-06-10T11:59:05;4.78;;;4.22;;
19883;SDS011;10104;50.732;10.174;2023-06-10T12:01:31;6.22;;;4.93;;
19883;SDS011;10104;50.732;10.174;2023-06-10T12:03:57;6.20;;;4.75;;
19883;SDS011;10104;50.732;10.174;2023-06-10T12:11:48;5.93;;;4.60;;
19883;SDS011;10104;50.732;10.174;2023-06-10T12:14:12;6.93;;;5.13;;
19883;SDS011;10104;50.732;10.174;2023-06-10T12:16:37;5.65;;;4.60;;
19883;SDS011;10104;50.732;10.174;2023-06-10T12:19:02;5.15;;;4.75;;
19883;SDS011;10104;50.732;10.174;2023-06-10T12:21:25;6.97;;;5.25;;
19883;SDS011;10104;50.732;10.174;2023-06-10T12:23:59;5.50;;;5.00;;
19883;SDS011;10104;50.732;10.174;2023-06-10T12:29:20;5.75;;;5.25;;
19883;SDS011;10104;50.732;10.174;2023-06-10T12:31:51;7.15;;;5.53;;
19883;SDS011;10104;50.732;10.174;2023-06-10T12:34:17;6.70;;;5.68;;
19883;SDS011;10104;50.732;10.174;2023-06-10T12:36:38;7.15;;;5.97;;
19883;SDS011;10104;50.732;10.174;2023-06-10T12:39:03;6.00;;;5.40;;
19883;SDS011;10104;50.732;10.174;2023-06-10T12:41:25;6.10;;;5.60;;
19883;SDS011;10104;50.732;10.174;2023-06-10T12:43:46;9.00;;;5.47;;
19883;SDS011;10104;50.732;10.174;2023-06-10T12:46:11;7.00;;;5.50;;
19883;SDS011;10104;50.732;10.174;2023-06-10T12:48:33;6.85;;;5.07;;
19883;SDS011;10104;50.732;10.174;2023-06-10T12:50:56;6.32;;;5.72;;
19883;SDS011;10104;50.732;10.174;2023-06-10T12:53:18;5.80;;;5.30;;
19883;SDS011;10104;50.732;10.174;2023-06-10T12:55:41;6.13;;;4.93;;
19883;SDS011;10104;50.732;10.174;2023-06-10T12:58:02;8.60;;;5.22;;
19883;SDS011;10104;50.732;10.174;2023-06-10T13:00:24;6.50;;;5.43;;
19883;SDS011;10104;50.732;10.174;2023-06-10T13:02:51;8.43;;;5.40;;
19883;SDS011;10104;50.732;10.174;2023-06-10T13:05:13;7.60;;;5.47;;
19883;SDS011;10104;50.732;10.174;2023-06-10T13:07:37;7.82;;;5.38;;
19883;SDS011;10104;50.732;10.174;2023-06-10T13:10:01;5.93;;;5.28;;
19883;SDS011;10104;50.732;10.174;2023-06-10T13:12:25;7.35;;;5.53;;
19883;SDS011;10104;50.732;10.174;2023-06-10T13:15:06;10.95;;;6.20;;
19883;SDS011;10104;50.732;10.174;2023-06-10T13:17:28;7.28;;;6.30;;
19883;SDS011;10104;50.732;10.174;2023-06-10T13:19:50;7.78;;;5.95;;
19883;SDS011;10104;50.732;10.174;2023-06-10T13:22:12;6.70;;;6.10;;
19883;SDS011;10104;50.732;10.174;2023-06-10T13:24:33;7.22;;;5.80;;
19883;SDS011;10104;50.732;10.174;2023-06-10T13:26:57;8.32;;;5.88;;
19883;SDS011;10104;50.732;10.174;2023-06-10T13:29:19;6.25;;;5.55;;
19883;SDS011;10104;50.732;10.174;2023-06-10T13:31:40;6.35;;;5.70;;
19883;SDS011;10104;50.732;10.174;2023-06-10T13:34:03;7.03;;;5.82;;
19883;SDS011;10104;50.732;10.174;2023-06-10T13:36:25;7.18;;;5.65;;
19883;SDS011;10104;50.732;10.174;2023-06-10T13:38:46;8.00;;;5.57;;
19883;SDS011;10104;50.732;10.174;2023-06-10T13:41:08;7.00;;;5.53;;
19883;SDS011;10104;50.732;10.174;2023-06-10T13:43:31;7.60;;;5.88;;
19883;SDS011;10104;50.732;10.174;2023-06-10T13:45:52;8.10;;;5.72;;
19883;SDS011;10104;50.732;10.174;2023-06-10T13:48:14;7.93;;;6.07;;
19883;SDS011;10104;50.732;10.174;2023-06-10T13:50:36;6.45;;;5.75;;
19883;SDS011;10104;50.732;10.174;2023-06-10T13:52:58;8.43;;;6.55;;
19883;SDS011;10104;50.732;10.174;2023-06-10T13:55:24;6.88;;;6.18;;
19883;SDS011;10104;50.732;10.174;2023-06-10T13:57:46;10.98;;;6.50;;
19883;SDS011;10104;50.732;10.174;2023-06-10T14:00:07;8.68;;;6.65;;
19883;SDS011;10104;50.732;10.174;2023-06-10T14:02:31;7.70;;;6.20;;
19883;SDS011;10104;50.732;10.174;2023-06-10T14:04:52;6.90;;;5.82;;
19883;SDS011;10104;50.732;10.174;2023-06-10T14:07:14;8.82;;;6.68;;
19883;SDS011;10104;50.732;10.174;2023-06-10T14:09:36;7.00;;;6.30;;
19883;SDS011;10104;50.732;10.174;2023-06-10T14:11:58;8.98;;;5.82;;
19883;SDS011;10104;50.732;10.174;2023-06-10T14:14:19;7.40;;;6.25;;
19883;SDS011;10104;50.732;10.174;2023-06-10T14:16:41;7.00;;;6.10;;
19883;SDS011;10104;50.732;10.174;2023-06-10T14:19:03;8.38;;;6.32;;
19883;SDS011;10104;50.732;10.174;2023-06-10T14:21:25;6.78;;;6.25;;
19883;SDS011;10104;50.732;10.174;2023-06-10T14:23:46;7.20;;;6.60;;
19883;SDS011;10104;50.732;10.174;2023-06-10T14:26:10;8.77;;;6.35;;
19883;SDS011;10104;50.732;10.174;2023-06-10T14:28:32;7.47;;;6.70;;